createdAt,value
2022-08-07T00:02:39.724Z,97149.16
2022-08-07T00:05:05.985Z,97138.28
2022-08-07T00:07:39.223Z,97162.25
2022-08-07T00:10:26.435Z,97135.53
2022-08-07T00:13:00.001Z,97004.81
2022-08-07T00:15:38.235Z,97223.22
2022-08-07T00:18:19.196Z,97164.56
2022-08-07T00:20:51.295Z,97136.72
2022-08-07T00:23:21.331Z,97174.03
2022-08-07T00:25:52.109Z,97135.09
2022-08-07T00:28:33.450Z,97098.66
2022-08-07T00:31:12.409Z,97204.34
2022-08-07T00:33:41.997Z,97149.44
2022-08-07T00:36:11.867Z,97204.22
2022-08-07T00:38:40.390Z,97238.25
2022-08-07T00:41:14.499Z,97150.75
2022-08-07T00:44:00.471Z,97140.44
2022-08-07T00:46:33.234Z,97115.41
2022-08-07T00:49:03.242Z,97183.88
2022-08-07T00:51:57.178Z,97170.94
2022-08-07T00:54:22.304Z,97111.19
2022-08-07T00:56:51.634Z,97085.03
2022-08-07T00:59:32.399Z,97078.59
2022-08-07T01:02:08.773Z,97149.47
2022-08-07T01:04:43.148Z,97142.84
2022-08-07T01:07:14.149Z,97166.19
2022-08-07T01:10:05.754Z,97158.13
2022-08-07T01:12:31.989Z,97181.53
2022-08-07T01:15:04.013Z,97158.97
2022-08-07T01:17:34.329Z,97108.97
2022-08-07T01:20:17.180Z,97143.72
2022-08-07T01:23:00.552Z,97129.09
2022-08-07T01:25:56.147Z,97231.94
2022-08-07T01:28:26.176Z,97137.34
2022-08-07T01:30:58.215Z,97120.63
2022-08-07T01:33:30.139Z,97143.00
2022-08-07T01:36:17.070Z,97015.72
2022-08-07T01:38:48.745Z,97154.50
2022-08-07T01:41:26.066Z,97159.13
2022-08-07T01:43:56.737Z,97171.25
2022-08-07T01:46:26.174Z,97177.25
2022-08-07T01:48:55.870Z,97153.91
2022-08-07T01:52:02.232Z,97102.03
2022-08-07T01:54:32.859Z,97040.53
2022-08-07T01:57:24.158Z,97116.41
2022-08-07T01:59:58.851Z,97152.53
2022-08-07T02:03:19.108Z,97143.78
2022-08-07T02:05:42.994Z,97123.91
2022-08-07T02:08:23.687Z,97115.81
2022-08-07T02:10:58.590Z,97128.66
2022-08-07T02:13:57.631Z,97129.66
2022-08-07T02:16:28.580Z,97112.88
2022-08-07T02:19:05.669Z,97134.66
2022-08-07T02:21:57.775Z,97154.00
2022-08-07T02:24:29.423Z,97098.69
2022-08-07T02:27:02.746Z,97101.03
2022-08-07T02:29:34.311Z,97073.50
2022-08-07T02:32:06.946Z,97098.06
2022-08-07T02:34:50.969Z,97150.28
2022-08-07T02:37:23.206Z,97115.25
2022-08-07T02:40:02.150Z,97147.63
2022-08-07T02:42:48.121Z,97025.75
2022-08-07T02:46:00.411Z,97115.97
2022-08-07T02:48:10.289Z,97102.59
2022-08-07T02:50:49.716Z,97116.59
2022-08-07T02:53:27.567Z,97060.38
2022-08-07T02:56:02.235Z,97103.50
2022-08-07T02:58:36.809Z,97158.69
2022-08-07T03:01:16.075Z,97065.72
2022-08-07T03:03:54.912Z,97086.03
2022-08-07T03:06:32.938Z,97116.25
2022-08-07T03:09:04.793Z,97088.88
2022-08-07T03:11:38.719Z,97090.22
2022-08-07T03:14:11.064Z,97106.69
2022-08-07T03:16:41.002Z,97100.41
2022-08-07T03:19:11.432Z,97128.03
2022-08-07T03:21:50.553Z,97085.13
2022-08-07T03:24:26.897Z,97091.00
2022-08-07T03:27:04.751Z,97059.16
2022-08-07T03:29:50.777Z,97104.44
2022-08-07T03:32:26.610Z,97091.88
2022-08-07T03:35:17.630Z,97026.22
2022-08-07T03:37:55.259Z,97101.69
2022-08-07T03:40:30.785Z,97133.50
2022-08-07T03:43:13.844Z,97082.56
2022-08-07T03:45:49.021Z,97122.34
2022-08-07T03:48:23.262Z,97118.31
2022-08-07T03:50:57.959Z,97105.78
2022-08-07T03:54:01.945Z,97110.63
2022-08-07T03:56:33.091Z,97066.09
2022-08-07T03:59:09.551Z,97129.59
2022-08-07T04:01:46.979Z,97114.53
2022-08-07T04:04:21.312Z,97098.63
2022-08-07T04:06:54.259Z,97122.47
2022-08-07T04:09:29.511Z,97104.84
2022-08-07T04:12:24.400Z,97122.59
2022-08-07T04:15:00.231Z,97157.34
2022-08-07T04:18:31.360Z,97070.91
2022-08-07T04:20:22.574Z,97116.84
2022-08-07T04:23:01.437Z,97125.19
2022-08-07T04:25:39.106Z,97123.88
2022-08-07T04:28:13.265Z,97065.91
2022-08-07T04:30:55.154Z,97134.34
2022-08-07T04:33:30.373Z,97065.88
2022-08-07T04:36:00.111Z,97046.28
2022-08-07T04:38:35.002Z,97114.13
2022-08-07T04:41:04.499Z,97102.31
2022-08-07T04:44:14.518Z,97134.16
2022-08-07T04:46:59.571Z,97135.63
2022-08-07T04:49:42.352Z,97151.81
2022-08-07T04:52:38.282Z,97138.19
2022-08-07T04:58:09.596Z,97090.25
2022-08-07T04:58:49.708Z,97126.13
2022-08-07T05:01:30.193Z,97157.78
2022-08-07T05:04:17.118Z,97154.75
2022-08-07T05:06:59.361Z,97176.09
2022-08-07T05:09:45.307Z,97134.19
2022-08-07T05:12:27.430Z,97153.13
2022-08-07T05:15:23.298Z,97128.75
2022-08-07T05:18:08.859Z,97141.84
2022-08-07T05:20:43.455Z,97148.81
2022-08-07T05:23:19.188Z,97144.06
2022-08-07T05:26:11.579Z,97155.50
2022-08-07T05:28:46.482Z,97146.09
2022-08-07T05:31:19.064Z,97157.91
2022-08-07T05:34:01.266Z,97115.72
2022-08-07T05:36:35.939Z,97144.22
2022-08-07T05:40:14.224Z,97179.56
2022-08-07T05:42:08.749Z,97141.81
2022-08-07T05:44:52.938Z,97087.19
2022-08-07T05:47:38.146Z,97144.63
2022-08-07T05:50:20.054Z,97093.78
2022-08-07T05:52:49.086Z,97161.34
2022-08-07T05:55:20.345Z,97128.97
2022-08-07T05:57:50.515Z,97164.06
2022-08-07T06:00:20.048Z,97168.50
2022-08-07T06:03:00.835Z,97150.69
2022-08-07T06:05:31.359Z,97170.97
2022-08-07T06:08:29.847Z,97181.56
2022-08-07T06:10:56.417Z,97170.28
2022-08-07T06:14:10.820Z,97172.56
2022-08-07T06:16:16.573Z,97122.84
2022-08-07T06:18:51.455Z,97127.00
2022-08-07T06:22:16.438Z,97196.78
2022-08-07T06:24:50.730Z,97207.50
2022-08-07T06:27:03.799Z,97147.72
2022-08-07T06:29:34.947Z,97121.31
2022-08-07T06:32:08.481Z,97169.56
2022-08-07T06:34:37.510Z,97109.81
2022-08-07T06:37:11.201Z,97096.31
2022-08-07T06:40:17.674Z,97158.28
2022-08-07T06:42:38.397Z,97134.13
2022-08-07T06:45:18.250Z,97132.44
2022-08-07T06:47:58.555Z,97116.91
2022-08-07T06:50:36.096Z,97142.38
2022-08-07T06:54:11.492Z,97082.25
2022-08-07T06:56:00.975Z,97204.28
2022-08-07T06:58:35.732Z,97121.06
2022-08-07T07:01:12.177Z,97063.56
2022-08-07T07:03:50.018Z,97147.53
2022-08-07T07:06:27.333Z,97158.84
2022-08-07T07:08:56.775Z,97182.47
2022-08-07T07:12:08.414Z,97179.34
2022-08-07T07:14:17.931Z,97062.81
2022-08-07T07:16:50.628Z,97118.53
2022-08-07T07:19:57.688Z,97168.03
2022-08-07T07:22:36.607Z,97145.03
2022-08-07T07:25:13.898Z,97094.16
2022-08-07T07:28:02.981Z,97144.28
2022-08-07T07:30:42.927Z,97161.13
2022-08-07T07:33:15.217Z,97131.41
2022-08-07T07:36:04.042Z,97136.44
2022-08-07T07:38:36.059Z,97089.47
2022-08-07T07:41:08.867Z,97136.75
2022-08-07T07:44:14.787Z,97107.25
2022-08-07T07:46:55.361Z,97095.94
2022-08-07T07:50:34.694Z,97094.84
2022-08-07T07:52:18.189Z,97101.63
2022-08-07T07:54:51.188Z,97126.22
2022-08-07T07:57:43.894Z,97040.69
2022-08-07T08:00:28.814Z,97140.59
2022-08-07T08:03:07.347Z,97139.16
2022-08-07T08:05:55.351Z,97076.00
2022-08-07T08:08:35.185Z,97114.31
2022-08-07T08:11:13.511Z,97127.13
2022-08-07T08:13:54.458Z,97100.34
2022-08-07T08:16:31.041Z,97128.31
2022-08-07T08:19:09.746Z,97119.50
2022-08-07T08:22:07.995Z,97165.41
2022-08-07T08:25:09.332Z,97125.06
2022-08-07T08:27:57.484Z,97081.47
2022-08-07T08:30:32.169Z,97071.16
2022-08-07T08:33:05.377Z,97088.28
2022-08-07T08:35:47.226Z,97099.16
2022-08-07T08:38:29.590Z,97113.34
2022-08-07T08:41:09.301Z,97110.50
2022-08-07T08:43:56.108Z,97110.16
2022-08-07T08:46:38.362Z,97131.44
2022-08-07T08:49:33.534Z,97073.47
2022-08-07T08:52:19.023Z,97128.50
2022-08-07T08:54:56.499Z,97157.59
2022-08-07T08:57:34.296Z,97033.16
2022-08-07T09:00:07.659Z,97142.81
2022-08-07T09:02:49.514Z,97130.28
2022-08-07T09:05:38.459Z,97140.03
2022-08-07T09:08:29.010Z,97119.47
2022-08-07T09:11:10.889Z,97083.81
2022-08-07T09:13:56.108Z,96987.09
2022-08-07T09:16:38.179Z,97083.59
2022-08-07T09:19:53.079Z,97057.16
2022-08-07T09:24:28.681Z,96972.34
2022-08-07T09:25:38.218Z,97015.47
2022-08-07T09:30:04.645Z,97034.81
2022-08-07T09:31:04.173Z,97073.59
2022-08-07T09:33:58.286Z,97084.22
2022-08-07T09:36:37.369Z,97052.69
2022-08-07T09:39:52.662Z,97065.66
2022-08-07T09:42:45.590Z,97002.22
2022-08-07T09:47:52.478Z,97041.66
2022-08-07T09:49:02.304Z,97083.56
2022-08-07T09:52:16.489Z,97039.31
2022-08-07T09:54:40.233Z,97035.91
2022-08-07T09:57:49.048Z,97086.94
2022-08-07T10:00:24.385Z,97027.22
2022-08-07T10:04:03.137Z,97057.38
2022-08-07T10:07:25.969Z,97048.66
2022-08-07T10:10:21.482Z,97094.41
2022-08-07T10:14:01.451Z,97053.06
2022-08-07T10:16:45.229Z,97107.16
2022-08-07T10:19:27.020Z,97018.91
2022-08-07T10:22:17.220Z,97074.47
2022-08-07T10:25:13.556Z,97040.47
2022-08-07T10:28:03.759Z,96970.38
2022-08-07T10:30:48.943Z,96994.00
2022-08-07T10:34:07.000Z,97033.88
2022-08-07T10:36:52.023Z,96977.25
2022-08-07T10:39:57.397Z,96999.88
2022-08-07T10:42:38.480Z,97042.03
2022-08-07T10:45:44.389Z,97003.78
2022-08-07T10:48:36.016Z,96972.56
2022-08-07T10:51:16.580Z,96973.22
2022-08-07T10:54:11.801Z,97045.38
2022-08-07T10:57:04.688Z,97035.31
2022-08-07T10:59:49.442Z,96913.41
2022-08-07T11:02:34.070Z,96919.25
2022-08-07T11:05:35.914Z,96982.53
2022-08-07T11:08:31.019Z,96953.84
2022-08-07T11:11:09.610Z,97008.28
2022-08-07T11:14:43.410Z,96964.88
2022-08-07T11:16:55.750Z,96902.50
2022-08-07T11:19:39.552Z,96924.81
2022-08-07T11:22:26.394Z,96925.53
2022-08-07T11:25:08.750Z,96975.06
2022-08-07T11:28:02.822Z,96881.72
2022-08-07T11:30:43.819Z,96951.06
2022-08-07T11:33:54.047Z,96971.69
2022-08-07T11:36:31.637Z,96939.28
2022-08-07T11:39:19.479Z,96946.88
2022-08-07T11:42:00.390Z,96891.44
2022-08-07T11:44:52.562Z,96922.78
2022-08-07T11:47:59.103Z,96957.31
2022-08-07T11:50:58.017Z,96955.69
2022-08-07T11:53:43.237Z,96916.13
2022-08-07T11:56:46.742Z,96929.78
2022-08-07T12:00:11.298Z,96887.16
2022-08-07T12:03:45.199Z,96945.19
2022-08-07T12:06:37.758Z,96905.75
2022-08-07T12:09:16.709Z,96914.75
2022-08-07T12:12:08.841Z,96952.59
2022-08-07T12:14:55.442Z,96960.47
2022-08-07T12:17:40.590Z,96925.06
2022-08-07T12:20:35.257Z,96837.63
2022-08-07T12:24:05.757Z,96930.81
2022-08-07T12:26:35.396Z,96919.16
2022-08-07T12:29:38.794Z,96901.28
2022-08-07T12:32:19.022Z,96925.13
2022-08-07T12:34:53.436Z,96881.78
2022-08-07T12:37:28.562Z,96925.91
2022-08-07T12:40:46.423Z,96870.69
2022-08-07T12:43:12.413Z,96826.44
2022-08-07T12:46:26.460Z,96905.06
2022-08-07T12:49:39.719Z,96912.63
2022-08-07T12:52:14.134Z,96949.00
2022-08-07T12:55:00.140Z,96893.69
2022-08-07T12:57:39.088Z,96891.53
2022-08-07T13:00:41.744Z,96857.41
2022-08-07T13:03:59.151Z,96896.44
2022-08-07T13:07:02.471Z,96860.66
2022-08-07T13:10:28.526Z,96885.56
2022-08-07T13:13:06.594Z,96874.47
2022-08-07T13:15:47.534Z,96895.63
2022-08-07T13:18:32.041Z,96847.91
2022-08-07T13:21:23.586Z,96881.72
2022-08-07T13:24:19.525Z,96857.25
2022-08-07T13:27:05.533Z,96844.28
2022-08-07T13:29:46.997Z,96884.38
2022-08-07T13:32:31.224Z,96872.25
2022-08-07T13:35:09.366Z,96818.97
2022-08-07T13:37:59.114Z,96877.78
2022-08-07T13:40:42.333Z,96908.22
2022-08-07T13:43:16.310Z,96857.31
2022-08-07T13:46:11.859Z,96883.81
2022-08-07T13:48:40.758Z,96843.19
2022-08-07T13:51:28.153Z,96861.66
2022-08-07T13:54:04.488Z,96876.84
2022-08-07T13:56:41.270Z,96850.06
2022-08-07T13:59:23.058Z,96880.97
2022-08-07T14:02:04.465Z,96816.50
2022-08-07T14:04:48.905Z,96804.34
2022-08-07T14:07:22.975Z,96839.25
2022-08-07T14:10:12.351Z,96785.88
2022-08-07T14:12:54.916Z,96849.78
2022-08-07T14:15:34.961Z,96870.56
2022-08-07T14:18:23.970Z,96868.00
2022-08-07T14:21:08.527Z,96861.47
2022-08-07T14:24:00.751Z,96845.72
2022-08-07T14:26:39.107Z,96845.72
2022-08-07T14:30:07.337Z,97084.56
2022-08-07T14:32:07.904Z,96765.00
2022-08-07T14:34:45.888Z,96804.69
2022-08-07T14:37:17.905Z,96840.44
2022-08-07T14:40:17.344Z,96690.59
2022-08-07T14:43:01.139Z,96835.25
2022-08-07T14:51:15.917Z,96743.03
2022-08-07T14:56:42.324Z,96825.50
2022-08-07T15:00:03.551Z,96809.88
2022-08-07T15:05:02.185Z,96800.56
2022-08-07T15:10:26.533Z,96811.25
2022-08-07T15:13:01.086Z,96763.84
2022-08-07T15:15:40.578Z,96757.75
2022-08-07T15:18:33.956Z,96815.56
2022-08-07T15:25:13.284Z,96825.44
2022-08-07T15:26:57.151Z,96827.59
2022-08-07T15:30:10.911Z,96773.44
2022-08-07T15:32:39.395Z,96734.72
2022-08-07T15:35:16.965Z,96765.88
2022-08-07T15:38:17.261Z,96736.63
2022-08-07T15:41:00.386Z,96797.28
2022-08-07T15:43:33.211Z,96786.97
2022-08-07T15:49:15.491Z,96811.56
2022-08-07T15:54:34.152Z,96834.63
2022-08-07T15:57:06.116Z,96809.97
2022-08-07T15:59:39.585Z,96767.44
2022-08-07T16:02:24.748Z,96819.94
2022-08-07T16:04:59.400Z,96764.22
2022-08-07T16:08:32.551Z,96761.50
2022-08-07T16:10:28.446Z,96771.75
2022-08-07T16:13:58.565Z,96762.56
2022-08-07T16:16:56.714Z,96803.66
2022-08-07T16:19:59.473Z,96801.06
2022-08-07T16:23:05.239Z,96757.75
2022-08-07T16:25:55.229Z,96761.28
2022-08-07T16:30:07.247Z,96784.31
2022-08-07T16:32:00.786Z,96763.50
2022-08-07T16:34:49.416Z,96781.66
2022-08-07T16:38:04.442Z,96720.25
2022-08-07T16:41:17.991Z,96745.38
2022-08-07T16:44:46.967Z,96763.16
2022-08-07T16:47:53.095Z,96795.19
2022-08-07T16:50:37.113Z,96796.81
2022-08-07T16:54:02.714Z,96772.56
2022-08-07T16:56:37.518Z,96780.25
2022-08-07T16:59:17.979Z,96800.19
2022-08-07T17:02:03.417Z,96803.13
2022-08-07T17:04:50.953Z,96781.03
2022-08-07T17:07:55.695Z,96768.78
2022-08-07T17:10:41.951Z,96746.00
2022-08-07T17:14:18.513Z,96804.25
2022-08-07T17:16:46.066Z,96778.72
2022-08-07T17:20:02.015Z,96785.13
2022-08-07T17:22:42.630Z,96766.84
2022-08-07T17:25:20.108Z,96727.41
2022-08-07T17:28:19.573Z,96730.44
2022-08-07T17:31:00.567Z,96785.84
2022-08-07T17:34:17.871Z,96784.28
2022-08-07T17:36:57.588Z,96797.69
2022-08-07T17:39:58.892Z,96697.38
2022-08-07T17:42:59.767Z,96768.47
2022-08-07T17:45:35.925Z,96744.06
2022-08-07T17:48:12.920Z,96803.34
2022-08-07T17:51:01.770Z,96771.91
2022-08-07T17:54:01.400Z,96772.09
2022-08-07T17:56:36.452Z,96823.19
2022-08-07T17:59:25.299Z,96821.59
2022-08-07T18:02:02.849Z,96810.78
2022-08-07T18:04:46.249Z,96690.84
2022-08-07T18:07:28.589Z,96755.88
2022-08-07T18:10:11.811Z,96750.53
2022-08-07T18:13:16.648Z,96805.59
2022-08-07T18:16:06.401Z,96807.09
2022-08-07T18:21:04.066Z,96754.84
2022-08-07T18:21:58.310Z,96804.09
2022-08-07T18:24:35.281Z,96806.88
2022-08-07T18:27:38.961Z,96780.16
2022-08-07T18:30:33.067Z,96784.75
2022-08-07T18:33:37.917Z,96789.19
2022-08-07T18:36:26.805Z,96814.78
2022-08-07T18:40:07.125Z,96811.78
2022-08-07T18:42:18.743Z,96737.91
2022-08-07T18:45:43.690Z,96825.84
2022-08-07T18:48:01.912Z,96860.63
2022-08-07T18:50:58.242Z,96906.84
2022-08-07T18:53:45.865Z,96817.06
2022-08-07T18:56:31.783Z,96814.06
2022-08-07T18:59:48.057Z,96888.56
2022-08-07T19:02:34.584Z,96826.94
2022-08-07T19:05:15.816Z,96860.69
2022-08-07T19:07:59.311Z,96832.38
2022-08-07T19:10:51.651Z,96859.19
2022-08-07T19:13:27.473Z,96839.94
2022-08-07T19:17:06.465Z,96799.81
2022-08-07T19:19:04.759Z,96819.81
2022-08-07T19:21:51.275Z,96878.56
2022-08-07T19:24:38.187Z,96866.44
2022-08-07T19:28:58.312Z,96882.50
2022-08-07T19:31:01.319Z,96805.53
2022-08-07T19:33:12.794Z,96887.75
2022-08-07T19:35:43.434Z,96795.22
2022-08-07T19:38:17.450Z,96902.13
2022-08-07T19:40:49.959Z,96872.00
2022-08-07T19:43:44.257Z,96874.28
2022-08-07T19:46:14.532Z,96920.38
2022-08-07T19:48:53.897Z,96922.44
2022-08-07T19:51:52.212Z,96913.75
2022-08-07T19:54:33.608Z,96925.06
2022-08-07T19:58:01.509Z,96858.56
2022-08-07T20:00:00.177Z,96878.59
2022-08-07T20:02:38.976Z,96887.97
2022-08-07T20:05:11.637Z,96866.94
2022-08-07T20:07:50.922Z,96941.84
2022-08-07T20:10:38.100Z,96914.78
2022-08-07T20:13:22.861Z,96850.63
2022-08-07T20:15:57.797Z,96869.78
2022-08-07T20:18:33.024Z,96868.06
2022-08-07T20:21:14.750Z,96886.28
2022-08-07T20:23:54.989Z,96929.16
2022-08-07T20:26:44.825Z,96924.28
2022-08-07T20:29:48.146Z,96872.41
2022-08-07T20:32:11.437Z,96907.31
2022-08-07T20:34:55.833Z,96859.84
2022-08-07T20:37:34.247Z,96930.00
2022-08-07T20:40:33.230Z,96865.50
2022-08-07T20:43:14.430Z,96872.53
2022-08-07T20:46:25.637Z,96878.94
2022-08-07T20:48:58.027Z,96853.50
2022-08-07T20:51:35.907Z,96894.59
2022-08-07T20:54:12.227Z,96986.53
2022-08-07T20:56:49.849Z,96918.00
2022-08-07T21:00:04.606Z,96887.31
2022-08-07T21:02:32.976Z,96897.59
2022-08-07T21:05:04.438Z,96856.81
2022-08-07T21:07:40.442Z,96872.66
2022-08-07T21:10:12.725Z,96883.78
2022-08-07T21:12:43.804Z,96829.28
2022-08-07T21:15:19.081Z,96881.59
2022-08-07T21:18:17.208Z,96885.50
2022-08-07T21:20:47.946Z,96887.94
2022-08-07T21:23:32.179Z,96899.44
2022-08-07T21:26:13.810Z,96897.78
2022-08-07T21:28:51.181Z,96865.81
2022-08-07T21:32:41.756Z,96883.69
2022-08-07T21:34:35.193Z,96857.22
2022-08-07T21:37:22.551Z,96940.03
2022-08-07T21:39:58.954Z,96826.44
2022-08-07T21:42:46.477Z,96906.78
2022-08-07T21:46:07.806Z,96880.50
2022-08-07T21:48:41.461Z,96890.28
2022-08-07T21:51:25.080Z,96887.03
2022-08-07T21:54:02.604Z,96895.13
2022-08-07T21:56:49.146Z,96928.53
2022-08-07T22:00:02.889Z,96828.22
2022-08-07T22:02:32.552Z,96891.94
2022-08-07T22:05:05.620Z,96911.50
2022-08-07T22:07:58.189Z,96902.72
2022-08-07T22:10:32.818Z,96871.16
2022-08-07T22:13:05.987Z,96905.56
2022-08-07T22:16:38.517Z,96896.34
2022-08-07T22:18:40.928Z,96870.06
2022-08-07T22:21:20.327Z,96909.72
2022-08-07T22:23:54.445Z,96955.66
2022-08-07T22:26:29.932Z,96903.91
2022-08-07T22:29:08.807Z,96940.38
2022-08-07T22:32:03.471Z,96936.06
2022-08-07T22:34:53.152Z,96878.78
2022-08-07T22:38:03.581Z,96912.53
2022-08-07T22:40:33.466Z,96914.09
2022-08-07T22:43:11.259Z,96966.47
2022-08-07T22:46:40.901Z,96902.94
2022-08-07T22:49:08.016Z,96906.19
2022-08-07T22:52:14.036Z,96864.03
2022-08-07T22:55:34.520Z,96893.91
2022-08-07T22:58:38.632Z,96928.22
2022-08-07T23:01:36.802Z,96913.88
2022-08-07T23:04:57.791Z,96917.53
2022-08-07T23:07:50.863Z,96918.50
2022-08-07T23:10:41.899Z,96908.88
2022-08-07T23:13:48.713Z,96950.50
2022-08-07T23:16:55.577Z,96928.28
2022-08-07T23:19:58.528Z,96924.44
2022-08-07T23:22:47.924Z,96938.31
2022-08-07T23:25:34.170Z,96944.81
2022-08-07T23:28:44.353Z,96892.31
2022-08-07T23:32:48.851Z,96951.88
2022-08-07T23:34:56.568Z,96948.06
2022-08-07T23:38:03.963Z,96927.94
2022-08-07T23:40:39.488Z,96966.22
2022-08-07T23:43:43.919Z,96934.28
2022-08-07T23:46:43.167Z,96899.28
2022-08-07T23:50:04.418Z,96968.94
2022-08-07T23:53:05.740Z,96923.94
2022-08-07T23:55:52.100Z,96981.56
2022-08-07T23:58:30.723Z,96971.69
